UKV821 ENGM-EGCC
Flight info
| Callsign | UKV821 |
|---|---|
| Flight time | N/A |
| Altitude | 36000 |
| Route | ATLAP DCT IPMOD DCT ALOTI DCT TILNI |
| Aircraft | A321/M-SDE3FGIKRWXY/S |
Departure
| Time | 2026-05-07 19:37 |
|---|---|
| Airport | Oslo-Gardermoen International Airport (ENGM) |
Arrival
| Time | N/A |
|---|---|
| Airport | Manchester Airport (EGCC) |
| Time | Latitude | Longitude | Altitude | Speed | Heading |
|---|---|---|---|---|---|
| 2026-05-07 19:07 | 60.19292 | 11.10562 | 679 ft | 0 kts | 15° |
| 2026-05-07 19:29 | 60.19291 | 11.10561 | 679 ft | 2 kts | 15° |
| 2026-05-07 19:30 | 60.19270 | 11.10543 | 676 ft | 4 kts | 44° |
| 2026-05-07 19:30 | 60.19258 | 11.10501 | 679 ft | 4 kts | 92° |
| 2026-05-07 19:30 | 60.19260 | 11.10471 | 677 ft | 1 kts | 105° |
| 2026-05-07 19:30 | 60.19261 | 11.10467 | 677 ft | 0 kts | 105° |
| 2026-05-07 19:32 | 60.19260 | 11.10475 | 677 ft | 3 kts | 105° |
| 2026-05-07 19:32 | 60.19250 | 11.10546 | 679 ft | 7 kts | 106° |
| 2026-05-07 19:32 | 60.19233 | 11.10660 | 676 ft | 10 kts | 106° |
| 2026-05-07 19:33 | 60.19211 | 11.10813 | 679 ft | 13 kts | 106° |
| 2026-05-07 19:33 | 60.19185 | 11.10996 | 679 ft | 13 kts | 106° |
| 2026-05-07 19:33 | 60.19208 | 11.11152 | 679 ft | 14 kts | 25° |
| 2026-05-07 19:33 | 60.19308 | 11.11211 | 680 ft | 16 kts | 16° |
| 2026-05-07 19:34 | 60.19421 | 11.11278 | 680 ft | 18 kts | 16° |
| 2026-05-07 19:34 | 60.19547 | 11.11351 | 680 ft | 20 kts | 15° |
| 2026-05-07 19:34 | 60.19679 | 11.11426 | 681 ft | 15 kts | 15° |
| 2026-05-07 19:34 | 60.19725 | 11.11460 | 681 ft | 5 kts | 36° |
| 2026-05-07 19:35 | 60.19736 | 11.11522 | 681 ft | 5 kts | 89° |
| 2026-05-07 19:35 | 60.19726 | 11.11605 | 681 ft | 7 kts | 105° |
| 2026-05-07 19:35 | 60.19712 | 11.11710 | 681 ft | 9 kts | 105° |
| 2026-05-07 19:35 | 60.19684 | 11.11825 | 682 ft | 10 kts | 134° |
| 2026-05-07 19:36 | 60.19645 | 11.11938 | 682 ft | 7 kts | 123° |
| 2026-05-07 19:36 | 60.19601 | 11.11942 | 683 ft | 0 kts | 194° |
| 2026-05-07 19:36 | 60.19535 | 11.11906 | 682 ft | 40 kts | 195° |
| 2026-05-07 19:37 | 60.19012 | 11.11604 | 680 ft | 113 kts | 195° |
| 2026-05-07 19:37 | 60.18064 | 11.11060 | 781 ft | 158 kts | 195° |
| 2026-05-07 19:37 | 60.17019 | 11.10448 | 1479 ft | 158 kts | 196° |
| 2026-05-07 19:37 | 60.15968 | 11.09783 | 2248 ft | 160 kts | 200° |
| 2026-05-07 19:38 | 60.14896 | 11.09050 | 2802 ft | 169 kts | 197° |
| 2026-05-07 19:38 | 60.13711 | 11.08335 | 3120 ft | 189 kts | 195° |
| 2026-05-07 19:38 | 60.12377 | 11.07657 | 3448 ft | 208 kts | 190° |
| 2026-05-07 19:38 | 60.10856 | 11.07257 | 3640 ft | 235 kts | 186° |
| 2026-05-07 19:39 | 60.09134 | 11.06928 | 4026 ft | 255 kts | 185° |
| 2026-05-07 19:39 | 60.07353 | 11.06581 | 4845 ft | 260 kts | 189° |
| 2026-05-07 19:39 | 60.05678 | 11.05193 | 5627 ft | 265 kts | 219° |
| 2026-05-07 19:39 | 60.04469 | 11.02400 | 6449 ft | 269 kts | 241° |
| 2026-05-07 19:40 | 60.03619 | 10.99045 | 7288 ft | 270 kts | 244° |
| 2026-05-07 19:40 | 60.02786 | 10.95655 | 8140 ft | 272 kts | 244° |
| 2026-05-07 19:40 | 60.01965 | 10.92284 | 8995 ft | 274 kts | 244° |
| 2026-05-07 19:40 | 60.01129 | 10.88841 | 9857 ft | 275 kts | 244° |
| 2026-05-07 19:41 | 60.00280 | 10.85363 | 10479 ft | 286 kts | 244° |
| 2026-05-07 19:41 | 59.99371 | 10.81656 | 10715 ft | 309 kts | 244° |
| 2026-05-07 19:41 | 59.98387 | 10.77664 | 10921 ft | 330 kts | 244° |
| 2026-05-07 19:41 | 59.97357 | 10.73484 | 11468 ft | 338 kts | 244° |
| 2026-05-07 19:42 | 59.96309 | 10.69237 | 12185 ft | 342 kts | 245° |
| 2026-05-07 19:42 | 59.95266 | 10.65022 | 12924 ft | 344 kts | 245° |
| 2026-05-07 19:42 | 59.94201 | 10.60722 | 13693 ft | 347 kts | 245° |
| 2026-05-07 19:42 | 59.93123 | 10.56383 | 14386 ft | 350 kts | 245° |
| 2026-05-07 19:43 | 59.92036 | 10.52015 | 15051 ft | 352 kts | 245° |
| 2026-05-07 19:43 | 59.90941 | 10.47635 | 15724 ft | 355 kts | 245° |
| 2026-05-07 19:43 | 59.89835 | 10.43207 | 16403 ft | 357 kts | 245° |
| 2026-05-07 19:43 | 59.88722 | 10.38762 | 17072 ft | 360 kts | 245° |
| 2026-05-07 19:44 | 59.87598 | 10.34281 | 17759 ft | 362 kts | 245° |
| 2026-05-07 19:44 | 59.86468 | 10.29777 | 18430 ft | 365 kts | 245° |
| 2026-05-07 19:44 | 59.85328 | 10.25242 | 19003 ft | 368 kts | 245° |
| 2026-05-07 19:44 | 59.84177 | 10.20676 | 19585 ft | 370 kts | 246° |
| 2026-05-07 19:45 | 59.83015 | 10.16073 | 20175 ft | 373 kts | 246° |
| 2026-05-07 19:45 | 59.81847 | 10.11460 | 20727 ft | 375 kts | 246° |
| 2026-05-07 19:45 | 59.80666 | 10.06810 | 21281 ft | 378 kts | 246° |
| 2026-05-07 19:45 | 59.79475 | 10.02135 | 21811 ft | 381 kts | 246° |
| 2026-05-07 19:46 | 59.78285 | 9.97478 | 22267 ft | 384 kts | 246° |
| 2026-05-07 19:46 | 59.77067 | 9.92725 | 22756 ft | 388 kts | 246° |
| 2026-05-07 19:46 | 59.75839 | 9.87938 | 23248 ft | 391 kts | 246° |
| 2026-05-07 19:46 | 59.74603 | 9.83123 | 23736 ft | 393 kts | 246° |
| 2026-05-07 19:47 | 59.73359 | 9.78282 | 24144 ft | 395 kts | 246° |
| 2026-05-07 19:47 | 59.72104 | 9.73407 | 24566 ft | 397 kts | 246° |
| 2026-05-07 19:47 | 59.70844 | 9.68523 | 24974 ft | 399 kts | 246° |
| 2026-05-07 19:47 | 59.69576 | 9.63620 | 25390 ft | 401 kts | 246° |
| 2026-05-07 19:48 | 59.68298 | 9.58702 | 25815 ft | 403 kts | 246° |
| 2026-05-07 19:48 | 59.67009 | 9.53769 | 26226 ft | 404 kts | 246° |
| 2026-05-07 19:48 | 59.65713 | 9.48818 | 26635 ft | 406 kts | 246° |
| 2026-05-07 19:48 | 59.64411 | 9.43846 | 27024 ft | 408 kts | 246° |
| 2026-05-07 19:49 | 59.63102 | 9.38855 | 27398 ft | 410 kts | 246° |